x

Fripp Nearshore (frp 2) (41033) Weather Station

6:00am - Mon 27th Apr 2015 All times are EDT. -4 hours from GMT.

  • Wind
    13mph, 16mph gusts
  • Air Temp 59°f
  • Sea Pressure 1007.1mb
  • Fripp Nearshore (frp 2)
  • Fripp Nearshore (frp 2)

More Historic Weather Station data

Upgrade to MSW Pro to gain access to the past 30 days of data for over 8000 Wavebouys and Weather Stations around the globe.

Join Pro

Comparision Forecast

View Surf forecast
   
Mon 04/27 6:00am 13 16 mph 1007.1mb 59f
5:00am 16 18 mph 1006.3mb 60f
4:00am 16 20 mph 1006mb 62f
3:00am 18 20 mph 1005.8mb 64f
2:00am 18 22 mph 1005.9mb 65f
1:00am 20 25 mph 1005.8mb 67f
12:00am 22 25 mph 1005.4mb 68f
Sun 04/26 11:00pm 20 22 mph 1004.8mb 69f
10:00pm 4
mph
1003.8mb 74f
9:00pm 7 9 mph 1003.5mb 74f
8:00pm 9 11 mph 1003mb 75f
7:00pm 11
mph
1002.5mb 78f
6:00pm 9 11 mph 1002.2mb 78f
5:00pm 13
mph
1001.8mb 79f
4:00pm 11 13 mph 1002.4mb 74f
3:00pm 11 13 mph 1003.2mb 74f
2:00pm 11 13 mph 1003.7mb 74f
12:00pm 13 16 mph 1004.4mb 73f
11:00am 13 16 mph 1004.5mb 73f
10:00am 18 22 mph 1004.2mb 71f
9:00am 22 27 mph 1004mb 71f
8:00am 25 27 mph 1004.1mb 70f
7:00am 20 25 mph 1003.8mb 70f
6:00am 20 22 mph 1003.4mb 70f
5:00am 18 20 mph 1002.9mb 70f
4:00am 18 20 mph 1002.9mb 70f
3:00am 16 22 mph 1002.9mb 69f
2:00am 13 16 mph 1003.9mb 69f
1:00am 13 16 mph 1004.3mb 68f
12:00am 18 22 mph 1004.5mb 69f
Sat 04/25 11:00pm 16 18 mph 1006mb 68f
10:00pm 22 27 mph 1007mb 67f
9:00pm 9 13 mph 1004.7mb 71f
8:00pm 9 13 mph 1004.5mb 70f
6:00pm 13 16 mph 1005.8mb 71f
5:00pm 13 16 mph 1006mb 71f
4:00pm 18 22 mph 1006.3mb 71f
3:00pm 20 25 mph 1007.7mb 70f
2:00pm 20 25 mph 1008.1mb 69f
1:00pm 18 20 mph 1011.5mb 67f
12:00pm  -  2 mph 1014.1mb 65f
11:00am 4 9 mph 1013.1mb 69f
10:00am 11 13 mph 1012.6mb 70f
9:00am 9 11 mph 1013.2mb 71f
8:00am 9 11 mph 1013.2mb 70f
7:00am 9 11 mph 1013.4mb 70f
6:00am 9 11 mph 1013.3mb 70f
5:00am 11 13 mph 1012.9mb 69f
4:00am 13 16 mph 1013mb 69f
3:00am 13 18 mph 1013.6mb 69f
2:00am 13 16 mph 1014.6mb 69f
1:00am 11 13 mph 1015mb 68f
Fri 04/24 11:00pm 11 13 mph 1015.7mb 67f
10:00pm 13 16 mph 1016.4mb 67f
9:00pm 11 13 mph 1016.4mb 66f
8:00pm 11 13 mph 1016.7mb 65f
7:00pm 9 11 mph 1016.8mb 66f
6:00pm 9 11 mph 1016.5mb 66f
5:00pm 9 11 mph 1016.3mb 66f
4:00pm 11 13 mph 1016.7mb 66f
3:00pm 11 13 mph 1017.4mb 65f
2:00pm 11 13 mph 1017.9mb 65f
1:00pm 11 13 mph 1017.8mb 64f
12:00pm 16 18 mph 1018mb 63f
11:00am 18 20 mph 1018.5mb 63f
10:00am 22 25 mph 1018.2mb 62f
9:00am 22 27 mph 1017.6mb 62f
8:00am 25 27 mph 1016.7mb 63f
7:00am 27 31 mph 1015.8mb 64f
6:00am 22 27 mph 1014.9mb 65f
5:00am 25 31 mph 1013.8mb 66f
4:00am 20 25 mph 1013.3mb 67f
3:00am 18 20 mph 1013mb 69f
Thu 04/23 5:00pm 11 13 mph 1011.7mb 73f
3:00pm 13
mph
1012mb 73f
2:00pm 9 11 mph 1012.7mb 75f
1:00pm 9 11 mph 1013.2mb 74f
12:00pm 7
mph
1013.8mb 77f